sensor_id;sensor_type;location;lat;lon;timestamp;P1;durP1;ratioP1;P2;durP2;ratioP2
7887;SDS011;3989;48.810;9.208;2022-07-29T00:00:37;4.38;;;4.10;;
7887;SDS011;3989;48.810;9.208;2022-07-29T00:03:04;4.45;;;4.15;;
7887;SDS011;3989;48.810;9.208;2022-07-29T00:05:30;4.35;;;4.15;;
7887;SDS011;3989;48.810;9.208;2022-07-29T00:07:58;5.13;;;4.57;;
7887;SDS011;3989;48.810;9.208;2022-07-29T00:10:25;4.47;;;4.00;;
7887;SDS011;3989;48.810;9.208;2022-07-29T00:12:52;4.53;;;4.10;;
7887;SDS011;3989;48.810;9.208;2022-07-29T00:15:18;4.57;;;4.07;;
7887;SDS011;3989;48.810;9.208;2022-07-29T00:17:45;5.60;;;3.97;;
7887;SDS011;3989;48.810;9.208;2022-07-29T00:20:12;4.45;;;4.15;;
7887;SDS011;3989;48.810;9.208;2022-07-29T00:22:39;5.10;;;4.63;;
7887;SDS011;3989;48.810;9.208;2022-07-29T00:25:07;4.47;;;4.22;;
7887;SDS011;3989;48.810;9.208;2022-07-29T00:27:34;4.80;;;4.43;;
7887;SDS011;3989;48.810;9.208;2022-07-29T00:30:01;4.30;;;4.03;;
7887;SDS011;3989;48.810;9.208;2022-07-29T00:32:28;5.22;;;4.82;;
7887;SDS011;3989;48.810;9.208;2022-07-29T00:34:55;4.82;;;4.43;;
7887;SDS011;3989;48.810;9.208;2022-07-29T00:37:45;4.75;;;4.40;;
7887;SDS011;3989;48.810;9.208;2022-07-29T00:40:13;4.82;;;4.43;;
7887;SDS011;3989;48.810;9.208;2022-07-29T00:42:43;4.88;;;4.55;;
7887;SDS011;3989;48.810;9.208;2022-07-29T00:45:10;4.53;;;4.18;;
7887;SDS011;3989;48.810;9.208;2022-07-29T00:47:38;5.30;;;4.88;;
7887;SDS011;3989;48.810;9.208;2022-07-29T00:50:06;5.88;;;4.78;;
7887;SDS011;3989;48.810;9.208;2022-07-29T00:52:35;6.75;;;5.10;;
7887;SDS011;3989;48.810;9.208;2022-07-29T00:55:04;5.72;;;4.75;;
7887;SDS011;3989;48.810;9.208;2022-07-29T00:57:34;4.93;;;4.63;;
7887;SDS011;3989;48.810;9.208;2022-07-29T01:00:02;5.38;;;4.97;;
7887;SDS011;3989;48.810;9.208;2022-07-29T01:02:29;5.25;;;4.85;;
7887;SDS011;3989;48.810;9.208;2022-07-29T01:04:56;5.30;;;4.80;;
7887;SDS011;3989;48.810;9.208;2022-07-29T01:07:24;5.38;;;4.93;;
7887;SDS011;3989;48.810;9.208;2022-07-29T01:09:53;5.63;;;5.13;;
7887;SDS011;3989;48.810;9.208;2022-07-29T01:12:21;5.10;;;4.68;;
7887;SDS011;3989;48.810;9.208;2022-07-29T01:14:52;4.90;;;4.60;;
7887;SDS011;3989;48.810;9.208;2022-07-29T01:17:21;5.93;;;5.35;;
7887;SDS011;3989;48.810;9.208;2022-07-29T01:19:52;5.40;;;4.97;;
7887;SDS011;3989;48.810;9.208;2022-07-29T01:22:40;5.03;;;4.72;;
7887;SDS011;3989;48.810;9.208;2022-07-29T01:25:26;5.07;;;4.70;;
7887;SDS011;3989;48.810;9.208;2022-07-29T01:28:16;5.03;;;4.72;;
7887;SDS011;3989;48.810;9.208;2022-07-29T01:30:52;5.63;;;4.90;;
7887;SDS011;3989;48.810;9.208;2022-07-29T01:33:20;6.13;;;4.95;;
7887;SDS011;3989;48.810;9.208;2022-07-29T01:36:10;5.50;;;4.90;;
7887;SDS011;3989;48.810;9.208;2022-07-29T01:38:39;6.25;;;5.10;;
7887;SDS011;3989;48.810;9.208;2022-07-29T01:41:09;5.55;;;5.07;;
7887;SDS011;3989;48.810;9.208;2022-07-29T01:43:42;5.63;;;5.10;;
7887;SDS011;3989;48.810;9.208;2022-07-29T01:46:17;7.78;;;5.38;;
7887;SDS011;3989;48.810;9.208;2022-07-29T01:48:50;6.95;;;5.47;;
7887;SDS011;3989;48.810;9.208;2022-07-29T01:51:24;7.97;;;4.85;;
7887;SDS011;3989;48.810;9.208;2022-07-29T01:53:57;5.57;;;5.07;;
7887;SDS011;3989;48.810;9.208;2022-07-29T01:56:29;4.88;;;4.57;;
7887;SDS011;3989;48.810;9.208;2022-07-29T01:58:58;4.68;;;4.38;;
7887;SDS011;3989;48.810;9.208;2022-07-29T02:01:28;5.82;;;5.00;;
7887;SDS011;3989;48.810;9.208;2022-07-29T02:03:57;5.65;;;5.15;;
7887;SDS011;3989;48.810;9.208;2022-07-29T02:06:25;5.25;;;4.82;;
7887;SDS011;3989;48.810;9.208;2022-07-29T02:08:54;5.75;;;5.35;;
7887;SDS011;3989;48.810;9.208;2022-07-29T02:11:22;5.03;;;4.53;;
7887;SDS011;3989;48.810;9.208;2022-07-29T02:13:49;4.75;;;4.28;;
7887;SDS011;3989;48.810;9.208;2022-07-29T02:16:18;6.68;;;4.78;;
7887;SDS011;3989;48.810;9.208;2022-07-29T02:18:49;5.37;;;4.97;;
7887;SDS011;3989;48.810;9.208;2022-07-29T02:21:21;5.05;;;4.65;;
7887;SDS011;3989;48.810;9.208;2022-07-29T02:23:51;4.82;;;4.53;;
7887;SDS011;3989;48.810;9.208;2022-07-29T02:26:19;4.80;;;4.40;;
7887;SDS011;3989;48.810;9.208;2022-07-29T02:28:49;5.15;;;4.70;;
7887;SDS011;3989;48.810;9.208;2022-07-29T02:31:18;4.32;;;4.03;;
7887;SDS011;3989;48.810;9.208;2022-07-29T02:33:50;4.65;;;4.35;;
7887;SDS011;3989;48.810;9.208;2022-07-29T02:36:18;3.80;;;3.50;;
7887;SDS011;3989;48.810;9.208;2022-07-29T02:38:47;4.60;;;4.30;;
7887;SDS011;3989;48.810;9.208;2022-07-29T02:41:23;4.18;;;3.80;;
7887;SDS011;3989;48.810;9.208;2022-07-29T02:43:53;4.20;;;4.00;;
7887;SDS011;3989;48.810;9.208;2022-07-29T02:46:24;5.40;;;4.60;;
7887;SDS011;3989;48.810;9.208;2022-07-29T02:48:58;4.15;;;3.85;;
7887;SDS011;3989;48.810;9.208;2022-07-29T02:51:35;4.80;;;4.50;;
7887;SDS011;3989;48.810;9.208;2022-07-29T02:54:08;4.70;;;4.07;;
7887;SDS011;3989;48.810;9.208;2022-07-29T02:56:37;4.67;;;4.37;;
7887;SDS011;3989;48.810;9.208;2022-07-29T02:59:08;4.70;;;4.40;;
7887;SDS011;3989;48.810;9.208;2022-07-29T03:01:38;3.92;;;3.72;;
7887;SDS011;3989;48.810;9.208;2022-07-29T03:04:09;5.90;;;4.33;;
7887;SDS011;3989;48.810;9.208;2022-07-29T03:06:37;4.30;;;4.00;;
7887;SDS011;3989;48.810;9.208;2022-07-29T03:09:07;4.70;;;4.40;;
7887;SDS011;3989;48.810;9.208;2022-07-29T03:11:34;5.33;;;4.93;;
7887;SDS011;3989;48.810;9.208;2022-07-29T03:14:01;5.10;;;4.80;;
7887;SDS011;3989;48.810;9.208;2022-07-29T03:16:29;5.47;;;5.00;;
7887;SDS011;3989;48.810;9.208;2022-07-29T03:18:56;5.60;;;4.83;;
7887;SDS011;3989;48.810;9.208;2022-07-29T03:21:25;6.40;;;5.40;;
7887;SDS011;3989;48.810;9.208;2022-07-29T03:23:52;5.00;;;4.60;;
7887;SDS011;3989;48.810;9.208;2022-07-29T03:26:18;5.10;;;4.57;;
7887;SDS011;3989;48.810;9.208;2022-07-29T03:28:45;5.97;;;5.47;;
7887;SDS011;3989;48.810;9.208;2022-07-29T03:31:12;5.57;;;5.17;;
7887;SDS011;3989;48.810;9.208;2022-07-29T03:33:39;5.10;;;4.70;;
7887;SDS011;3989;48.810;9.208;2022-07-29T03:36:06;6.53;;;5.63;;
7887;SDS011;3989;48.810;9.208;2022-07-29T03:38:34;5.60;;;5.20;;
7887;SDS011;3989;48.810;9.208;2022-07-29T03:41:03;5.57;;;5.10;;
7887;SDS011;3989;48.810;9.208;2022-07-29T03:43:35;5.60;;;5.20;;
7887;SDS011;3989;48.810;9.208;2022-07-29T03:46:06;5.33;;;5.00;;
7887;SDS011;3989;48.810;9.208;2022-07-29T03:48:36;5.63;;;5.07;;
7887;SDS011;3989;48.810;9.208;2022-07-29T03:51:05;5.33;;;4.93;;
7887;SDS011;3989;48.810;9.208;2022-07-29T03:53:34;5.80;;;5.37;;
7887;SDS011;3989;48.810;9.208;2022-07-29T03:56:01;6.30;;;5.90;;
7887;SDS011;3989;48.810;9.208;2022-07-29T03:58:29;4.93;;;4.63;;
7887;SDS011;3989;48.810;9.208;2022-07-29T04:00:57;6.83;;;5.93;;
7887;SDS011;3989;48.810;9.208;2022-07-29T04:03:24;5.67;;;5.27;;
7887;SDS011;3989;48.810;9.208;2022-07-29T04:05:58;5.37;;;5.07;;
7887;SDS011;3989;48.810;9.208;2022-07-29T04:08:27;5.37;;;4.90;;
7887;SDS011;3989;48.810;9.208;2022-07-29T04:10:55;5.47;;;5.13;;
7887;SDS011;3989;48.810;9.208;2022-07-29T04:13:22;5.80;;;5.40;;
7887;SDS011;3989;48.810;9.208;2022-07-29T04:15:49;5.73;;;5.13;;
7887;SDS011;3989;48.810;9.208;2022-07-29T04:18:16;5.43;;;5.03;;
7887;SDS011;3989;48.810;9.208;2022-07-29T04:20:42;6.10;;;5.50;;
7887;SDS011;3989;48.810;9.208;2022-07-29T04:23:09;5.73;;;4.97;;
7887;SDS011;3989;48.810;9.208;2022-07-29T04:25:39;5.60;;;5.20;;
7887;SDS011;3989;48.810;9.208;2022-07-29T04:28:07;5.15;;;4.70;;
7887;SDS011;3989;48.810;9.208;2022-07-29T04:30:35;6.97;;;5.37;;
7887;SDS011;3989;48.810;9.208;2022-07-29T04:33:05;5.63;;;5.33;;
7887;SDS011;3989;48.810;9.208;2022-07-29T04:35:33;5.60;;;5.23;;
7887;SDS011;3989;48.810;9.208;2022-07-29T04:38:02;5.03;;;4.63;;
7887;SDS011;3989;48.810;9.208;2022-07-29T04:40:30;6.43;;;5.93;;
7887;SDS011;3989;48.810;9.208;2022-07-29T04:42:58;5.78;;;5.28;;
7887;SDS011;3989;48.810;9.208;2022-07-29T04:45:27;5.63;;;5.10;;
7887;SDS011;3989;48.810;9.208;2022-07-29T04:47:54;5.20;;;4.80;;
7887;SDS011;3989;48.810;9.208;2022-07-29T04:50:21;5.30;;;5.00;;
7887;SDS011;3989;48.810;9.208;2022-07-29T04:52:48;6.18;;;5.20;;
7887;SDS011;3989;48.810;9.208;2022-07-29T04:55:15;6.67;;;5.30;;
7887;SDS011;3989;48.810;9.208;2022-07-29T04:57:41;4.90;;;4.50;;
7887;SDS011;3989;48.810;9.208;2022-07-29T05:00:09;5.40;;;4.53;;
7887;SDS011;3989;48.810;9.208;2022-07-29T05:02:37;6.10;;;4.85;;
7887;SDS011;3989;48.810;9.208;2022-07-29T05:05:04;4.80;;;4.15;;
7887;SDS011;3989;48.810;9.208;2022-07-29T05:07:32;4.10;;;3.80;;
7887;SDS011;3989;48.810;9.208;2022-07-29T05:09:58;3.95;;;3.53;;
7887;SDS011;3989;48.810;9.208;2022-07-29T05:12:25;3.00;;;2.58;;
7887;SDS011;3989;48.810;9.208;2022-07-29T05:14:52;2.88;;;2.72;;
7887;SDS011;3989;48.810;9.208;2022-07-29T05:17:19;3.53;;;3.33;;
7887;SDS011;3989;48.810;9.208;2022-07-29T05:19:47;3.22;;;3.03;;
7887;SDS011;3989;48.810;9.208;2022-07-29T05:22:16;4.13;;;3.90;;
7887;SDS011;3989;48.810;9.208;2022-07-29T05:24:43;3.58;;;3.22;;
7887;SDS011;3989;48.810;9.208;2022-07-29T05:27:09;3.47;;;3.28;;
7887;SDS011;3989;48.810;9.208;2022-07-29T05:29:36;3.53;;;3.33;;
7887;SDS011;3989;48.810;9.208;2022-07-29T05:32:03;3.95;;;3.03;;
7887;SDS011;3989;48.810;9.208;2022-07-29T05:34:30;3.40;;;3.10;;
7887;SDS011;3989;48.810;9.208;2022-07-29T05:36:58;3.40;;;3.20;;
7887;SDS011;3989;48.810;9.208;2022-07-29T05:39:25;3.40;;;3.20;;
7887;SDS011;3989;48.810;9.208;2022-07-29T05:41:52;3.33;;;3.13;;
7887;SDS011;3989;48.810;9.208;2022-07-29T05:44:19;2.65;;;2.55;;
7887;SDS011;3989;48.810;9.208;2022-07-29T05:46:46;2.92;;;2.72;;
7887;SDS011;3989;48.810;9.208;2022-07-29T05:49:12;3.17;;;2.88;;
7887;SDS011;3989;48.810;9.208;2022-07-29T05:51:39;3.10;;;2.90;;
7887;SDS011;3989;48.810;9.208;2022-07-29T05:54:07;3.35;;;2.75;;
7887;SDS011;3989;48.810;9.208;2022-07-29T05:56:35;2.90;;;2.70;;
7887;SDS011;3989;48.810;9.208;2022-07-29T05:59:02;3.10;;;2.90;;
7887;SDS011;3989;48.810;9.208;2022-07-29T06:01:29;3.40;;;3.20;;
7887;SDS011;3989;48.810;9.208;2022-07-29T06:03:56;3.50;;;3.30;;
7887;SDS011;3989;48.810;9.208;2022-07-29T06:06:23;3.30;;;3.00;;
7887;SDS011;3989;48.810;9.208;2022-07-29T06:08:50;5.38;;;3.17;;
7887;SDS011;3989;48.810;9.208;2022-07-29T06:11:18;4.10;;;3.30;;
7887;SDS011;3989;48.810;9.208;2022-07-29T06:13:44;5.95;;;3.03;;
7887;SDS011;3989;48.810;9.208;2022-07-29T06:16:11;3.58;;;3.30;;
7887;SDS011;3989;48.810;9.208;2022-07-29T06:18:38;3.15;;;2.95;;
7887;SDS011;3989;48.810;9.208;2022-07-29T06:21:07;3.15;;;2.95;;
7887;SDS011;3989;48.810;9.208;2022-07-29T06:23:34;3.58;;;2.85;;
7887;SDS011;3989;48.810;9.208;2022-07-29T06:26:02;4.43;;;2.92;;
7887;SDS011;3989;48.810;9.208;2022-07-29T06:28:30;3.22;;;2.55;;
7887;SDS011;3989;48.810;9.208;2022-07-29T06:30:57;3.72;;;2.78;;
7887;SDS011;3989;48.810;9.208;2022-07-29T06:33:24;3.05;;;2.65;;
7887;SDS011;3989;48.810;9.208;2022-07-29T06:35:51;2.55;;;2.45;;
7887;SDS011;3989;48.810;9.208;2022-07-29T06:38:17;2.10;;;2.00;;
7887;SDS011;3989;48.810;9.208;2022-07-29T06:40:44;2.40;;;2.30;;
7887;SDS011;3989;48.810;9.208;2022-07-29T06:43:27;2.25;;;2.15;;
7887;SDS011;3989;48.810;9.208;2022-07-29T06:45:58;2.67;;;2.58;;
7887;SDS011;3989;48.810;9.208;2022-07-29T06:48:27;3.35;;;2.67;;
7887;SDS011;3989;48.810;9.208;2022-07-29T06:50:54;2.75;;;2.55;;
7887;SDS011;3989;48.810;9.208;2022-07-29T06:53:21;2.53;;;2.33;;
7887;SDS011;3989;48.810;9.208;2022-07-29T06:55:48;3.60;;;2.45;;
7887;SDS011;3989;48.810;9.208;2022-07-29T06:58:15;2.85;;;2.28;;
7887;SDS011;3989;48.810;9.208;2022-07-29T07:00:45;11.80;;;2.72;;
7887;SDS011;3989;48.810;9.208;2022-07-29T07:03:13;3.78;;;2.42;;
7887;SDS011;3989;48.810;9.208;2022-07-29T07:05:40;2.58;;;2.38;;
7887;SDS011;3989;48.810;9.208;2022-07-29T07:08:07;2.47;;;2.28;;
7887;SDS011;3989;48.810;9.208;2022-07-29T07:10:34;2.83;;;2.67;;
7887;SDS011;3989;48.810;9.208;2022-07-29T07:13:02;2.63;;;2.40;;
7887;SDS011;3989;48.810;9.208;2022-07-29T07:15:30;5.32;;;2.75;;
7887;SDS011;3989;48.810;9.208;2022-07-29T07:17:57;2.78;;;2.67;;
7887;SDS011;3989;48.810;9.208;2022-07-29T07:20:25;2.33;;;2.17;;
7887;SDS011;3989;48.810;9.208;2022-07-29T07:22:51;2.58;;;2.38;;
7887;SDS011;3989;48.810;9.208;2022-07-29T07:25:18;2.65;;;2.45;;
7887;SDS011;3989;48.810;9.208;2022-07-29T07:27:45;4.28;;;2.60;;
7887;SDS011;3989;48.810;9.208;2022-07-29T07:30:12;2.55;;;2.25;;
7887;SDS011;3989;48.810;9.208;2022-07-29T07:32:39;2.65;;;2.55;;
7887;SDS011;3989;48.810;9.208;2022-07-29T07:35:06;2.45;;;2.22;;
7887;SDS011;3989;48.810;9.208;2022-07-29T07:37:36;2.40;;;2.20;;
7887;SDS011;3989;48.810;9.208;2022-07-29T07:40:05;2.05;;;1.95;;
7887;SDS011;3989;48.810;9.208;2022-07-29T07:42:33;2.30;;;2.20;;
7887;SDS011;3989;48.810;9.208;2022-07-29T07:45:00;2.30;;;2.20;;
7887;SDS011;3989;48.810;9.208;2022-07-29T07:47:27;2.22;;;2.10;;
7887;SDS011;3989;48.810;9.208;2022-07-29T07:49:53;1.80;;;1.70;;
7887;SDS011;3989;48.810;9.208;2022-07-29T07:52:20;3.22;;;2.33;;
7887;SDS011;3989;48.810;9.208;2022-07-29T07:54:49;2.72;;;2.53;;
7887;SDS011;3989;48.810;9.208;2022-07-29T07:57:16;4.85;;;2.78;;
7887;SDS011;3989;48.810;9.208;2022-07-29T07:59:43;3.70;;;2.17;;
7887;SDS011;3989;48.810;9.208;2022-07-29T08:02:10;2.50;;;2.40;;
7887;SDS011;3989;48.810;9.208;2022-07-29T08:04:36;2.60;;;2.40;;
7887;SDS011;3989;48.810;9.208;2022-07-29T08:07:05;2.70;;;2.50;;
7887;SDS011;3989;48.810;9.208;2022-07-29T08:09:32;2.47;;;2.38;;
7887;SDS011;3989;48.810;9.208;2022-07-29T08:12:01;3.45;;;2.45;;
7887;SDS011;3989;48.810;9.208;2022-07-29T08:14:30;3.08;;;2.40;;
7887;SDS011;3989;48.810;9.208;2022-07-29T08:16:57;2.33;;;2.13;;
7887;SDS011;3989;48.810;9.208;2022-07-29T08:19:24;2.60;;;2.50;;
7887;SDS011;3989;48.810;9.208;2022-07-29T08:21:51;4.13;;;2.58;;
7887;SDS011;3989;48.810;9.208;2022-07-29T08:24:18;2.88;;;2.60;;
7887;SDS011;3989;48.810;9.208;2022-07-29T08:27:04;2.78;;;2.42;;
7887;SDS011;3989;48.810;9.208;2022-07-29T08:29:31;2.78;;;2.58;;
7887;SDS011;3989;48.810;9.208;2022-07-29T08:31:57;3.40;;;3.08;;
7887;SDS011;3989;48.810;9.208;2022-07-29T08:34:24;2.95;;;2.72;;
7887;SDS011;3989;48.810;9.208;2022-07-29T08:36:50;2.30;;;2.10;;
7887;SDS011;3989;48.810;9.208;2022-07-29T08:39:17;2.53;;;2.33;;
7887;SDS011;3989;48.810;9.208;2022-07-29T08:41:44;2.85;;;2.65;;
7887;SDS011;3989;48.810;9.208;2022-07-29T08:44:12;3.00;;;2.70;;
7887;SDS011;3989;48.810;9.208;2022-07-29T08:46:39;3.28;;;2.65;;
7887;SDS011;3989;48.810;9.208;2022-07-29T08:49:06;3.05;;;2.85;;
7887;SDS011;3989;48.810;9.208;2022-07-29T08:51:33;2.83;;;2.67;;
7887;SDS011;3989;48.810;9.208;2022-07-29T08:54:01;3.40;;;3.15;;
7887;SDS011;3989;48.810;9.208;2022-07-29T08:56:28;3.05;;;2.53;;
7887;SDS011;3989;48.810;9.208;2022-07-29T08:58:56;3.20;;;2.90;;
7887;SDS011;3989;48.810;9.208;2022-07-29T09:01:27;3.70;;;2.90;;
7887;SDS011;3989;48.810;9.208;2022-07-29T09:03:55;2.90;;;2.60;;
7887;SDS011;3989;48.810;9.208;2022-07-29T09:06:24;3.33;;;2.42;;
7887;SDS011;3989;48.810;9.208;2022-07-29T09:08:54;3.25;;;3.05;;
7887;SDS011;3989;48.810;9.208;2022-07-29T09:11:24;2.45;;;2.33;;
7887;SDS011;3989;48.810;9.208;2022-07-29T09:13:51;2.90;;;2.70;;
7887;SDS011;3989;48.810;9.208;2022-07-29T09:16:18;2.55;;;2.45;;
7887;SDS011;3989;48.810;9.208;2022-07-29T09:18:46;2.95;;;2.75;;
7887;SDS011;3989;48.810;9.208;2022-07-29T09:21:13;3.00;;;2.90;;
7887;SDS011;3989;48.810;9.208;2022-07-29T09:23:59;3.33;;;3.08;;
7887;SDS011;3989;48.810;9.208;2022-07-29T09:26:31;3.08;;;2.90;;
7887;SDS011;3989;48.810;9.208;2022-07-29T09:28:59;3.95;;;3.22;;
7887;SDS011;3989;48.810;9.208;2022-07-29T09:31:34;2.80;;;2.70;;
7887;SDS011;3989;48.810;9.208;2022-07-29T09:34:04;3.20;;;2.90;;
7887;SDS011;3989;48.810;9.208;2022-07-29T09:36:33;3.03;;;2.90;;
7887;SDS011;3989;48.810;9.208;2022-07-29T09:39:05;4.20;;;3.22;;
7887;SDS011;3989;48.810;9.208;2022-07-29T09:41:43;3.40;;;3.20;;
7887;SDS011;3989;48.810;9.208;2022-07-29T09:44:11;3.55;;;2.92;;
7887;SDS011;3989;48.810;9.208;2022-07-29T09:46:40;3.08;;;2.88;;
7887;SDS011;3989;48.810;9.208;2022-07-29T09:49:09;3.30;;;3.10;;
7887;SDS011;3989;48.810;9.208;2022-07-29T09:51:37;3.28;;;3.08;;
7887;SDS011;3989;48.810;9.208;2022-07-29T09:56:51;3.90;;;3.38;;
7887;SDS011;3989;48.810;9.208;2022-07-29T09:59:18;3.45;;;3.15;;
7887;SDS011;3989;48.810;9.208;2022-07-29T10:01:47;3.60;;;2.97;;
7887;SDS011;3989;48.810;9.208;2022-07-29T10:04:16;3.72;;;3.50;;
7887;SDS011;3989;48.810;9.208;2022-07-29T10:06:55;3.38;;;3.17;;
7887;SDS011;3989;48.810;9.208;2022-07-29T10:09:23;3.63;;;3.08;;
7887;SDS011;3989;48.810;9.208;2022-07-29T10:14:34;3.80;;;3.50;;
7887;SDS011;3989;48.810;9.208;2022-07-29T10:17:02;3.33;;;3.13;;
7887;SDS011;3989;48.810;9.208;2022-07-29T10:19:31;4.95;;;3.08;;
7887;SDS011;3989;48.810;9.208;2022-07-29T10:21:59;4.55;;;3.50;;
7887;SDS011;3989;48.810;9.208;2022-07-29T10:24:28;4.05;;;3.25;;
7887;SDS011;3989;48.810;9.208;2022-07-29T10:26:57;3.90;;;3.70;;
7887;SDS011;3989;48.810;9.208;2022-07-29T10:29:25;3.78;;;3.47;;
7887;SDS011;3989;48.810;9.208;2022-07-29T10:31:57;4.13;;;3.47;;
7887;SDS011;3989;48.810;9.208;2022-07-29T10:34:36;4.28;;;3.40;;
7887;SDS011;3989;48.810;9.208;2022-07-29T10:37:22;3.97;;;3.72;;
7887;SDS011;3989;48.810;9.208;2022-07-29T10:39:56;3.72;;;3.53;;
7887;SDS011;3989;48.810;9.208;2022-07-29T10:42:51;4.00;;;3.70;;
7887;SDS011;3989;48.810;9.208;2022-07-29T10:45:19;3.78;;;3.58;;
7887;SDS011;3989;48.810;9.208;2022-07-29T10:47:47;5.10;;;3.60;;
7887;SDS011;3989;48.810;9.208;2022-07-29T10:50:15;4.35;;;4.07;;
7887;SDS011;3989;48.810;9.208;2022-07-29T10:52:52;3.55;;;3.35;;
7887;SDS011;3989;48.810;9.208;2022-07-29T10:55:31;5.13;;;3.63;;
7887;SDS011;3989;48.810;9.208;2022-07-29T10:58:12;3.70;;;3.50;;
7887;SDS011;3989;48.810;9.208;2022-07-29T11:00:41;3.67;;;3.47;;
7887;SDS011;3989;48.810;9.208;2022-07-29T11:03:08;4.00;;;3.60;;
7887;SDS011;3989;48.810;9.208;2022-07-29T11:05:54;4.20;;;3.90;;
7887;SDS011;3989;48.810;9.208;2022-07-29T11:08:23;4.40;;;3.70;;
7887;SDS011;3989;48.810;9.208;2022-07-29T11:10:51;4.22;;;3.85;;
7887;SDS011;3989;48.810;9.208;2022-07-29T11:16:12;4.40;;;4.10;;
7887;SDS011;3989;48.810;9.208;2022-07-29T11:21:41;6.50;;;4.78;;
7887;SDS011;3989;48.810;9.208;2022-07-29T11:24:11;5.35;;;4.95;;
7887;SDS011;3989;48.810;9.208;2022-07-29T11:26:39;6.28;;;5.35;;
7887;SDS011;3989;48.810;9.208;2022-07-29T11:29:15;5.88;;;4.53;;
7887;SDS011;3989;48.810;9.208;2022-07-29T11:31:45;4.70;;;4.40;;
7887;SDS011;3989;48.810;9.208;2022-07-29T11:34:17;5.72;;;4.85;;
7887;SDS011;3989;48.810;9.208;2022-07-29T11:39:43;5.03;;;4.60;;
7887;SDS011;3989;48.810;9.208;2022-07-29T11:45:04;5.07;;;4.70;;
7887;SDS011;3989;48.810;9.208;2022-07-29T11:47:33;5.10;;;4.70;;
7887;SDS011;3989;48.810;9.208;2022-07-29T11:50:01;4.60;;;4.30;;
7887;SDS011;3989;48.810;9.208;2022-07-29T11:52:33;4.68;;;4.38;;
7887;SDS011;3989;48.810;9.208;2022-07-29T11:55:02;4.95;;;4.55;;
7887;SDS011;3989;48.810;9.208;2022-07-29T11:57:32;4.38;;;3.95;;
7887;SDS011;3989;48.810;9.208;2022-07-29T12:00:00;4.22;;;3.92;;
7887;SDS011;3989;48.810;9.208;2022-07-29T12:02:37;6.78;;;4.18;;
7887;SDS011;3989;48.810;9.208;2022-07-29T12:05:07;4.97;;;3.55;;
7887;SDS011;3989;48.810;9.208;2022-07-29T12:07:36;3.47;;;3.28;;
7887;SDS011;3989;48.810;9.208;2022-07-29T12:10:05;6.28;;;2.22;;
7887;SDS011;3989;48.810;9.208;2022-07-29T12:12:32;2.92;;;2.45;;
7887;SDS011;3989;48.810;9.208;2022-07-29T12:15:10;2.47;;;2.38;;
7887;SDS011;3989;48.810;9.208;2022-07-29T12:17:37;4.35;;;2.50;;
7887;SDS011;3989;48.810;9.208;2022-07-29T12:20:06;2.33;;;2.13;;
7887;SDS011;3989;48.810;9.208;2022-07-29T12:22:34;2.30;;;2.20;;
7887;SDS011;3989;48.810;9.208;2022-07-29T12:25:05;2.47;;;2.05;;
7887;SDS011;3989;48.810;9.208;2022-07-29T12:27:34;3.90;;;2.00;;
7887;SDS011;3989;48.810;9.208;2022-07-29T12:30:03;1.90;;;1.80;;
7887;SDS011;3989;48.810;9.208;2022-07-29T12:32:32;2.08;;;1.90;;
7887;SDS011;3989;48.810;9.208;2022-07-29T12:35:00;2.35;;;1.77;;
7887;SDS011;3989;48.810;9.208;2022-07-29T12:37:29;2.78;;;2.40;;
7887;SDS011;3989;48.810;9.208;2022-07-29T12:39:58;3.38;;;1.90;;
7887;SDS011;3989;48.810;9.208;2022-07-29T12:42:25;1.90;;;1.80;;
7887;SDS011;3989;48.810;9.208;2022-07-29T12:44:52;2.47;;;2.17;;
7887;SDS011;3989;48.810;9.208;2022-07-29T12:47:19;2.53;;;2.33;;
7887;SDS011;3989;48.810;9.208;2022-07-29T12:49:46;3.28;;;2.72;;
7887;SDS011;3989;48.810;9.208;2022-07-29T12:52:23;2.60;;;2.40;;
7887;SDS011;3989;48.810;9.208;2022-07-29T12:54:50;3.05;;;2.42;;
7887;SDS011;3989;48.810;9.208;2022-07-29T12:57:18;4.22;;;2.28;;
7887;SDS011;3989;48.810;9.208;2022-07-29T12:59:45;3.45;;;2.45;;
7887;SDS011;3989;48.810;9.208;2022-07-29T13:02:25;2.90;;;2.70;;
7887;SDS011;3989;48.810;9.208;2022-07-29T13:04:55;4.65;;;2.92;;
7887;SDS011;3989;48.810;9.208;2022-07-29T13:07:24;3.40;;;2.75;;
7887;SDS011;3989;48.810;9.208;2022-07-29T13:09:52;3.92;;;2.72;;
7887;SDS011;3989;48.810;9.208;2022-07-29T13:12:20;3.00;;;2.67;;
7887;SDS011;3989;48.810;9.208;2022-07-29T13:14:48;3.53;;;3.13;;
7887;SDS011;3989;48.810;9.208;2022-07-29T13:17:16;3.10;;;2.90;;
7887;SDS011;3989;48.810;9.208;2022-07-29T13:19:44;3.33;;;3.03;;
7887;SDS011;3989;48.810;9.208;2022-07-29T13:22:13;2.92;;;2.72;;
7887;SDS011;3989;48.810;9.208;2022-07-29T13:24:47;2.75;;;2.60;;
7887;SDS011;3989;48.810;9.208;2022-07-29T13:27:16;5.60;;;2.72;;
7887;SDS011;3989;48.810;9.208;2022-07-29T13:29:44;4.57;;;3.10;;
7887;SDS011;3989;48.810;9.208;2022-07-29T13:32:11;3.85;;;2.92;;
7887;SDS011;3989;48.810;9.208;2022-07-29T13:34:38;4.20;;;3.90;;
7887;SDS011;3989;48.810;9.208;2022-07-29T13:37:05;5.53;;;3.85;;
7887;SDS011;3989;48.810;9.208;2022-07-29T13:39:32;4.88;;;4.15;;
7887;SDS011;3989;48.810;9.208;2022-07-29T13:41:59;4.60;;;4.20;;
7887;SDS011;3989;48.810;9.208;2022-07-29T13:44:26;4.55;;;4.20;;
7887;SDS011;3989;48.810;9.208;2022-07-29T13:46:54;4.60;;;4.20;;
7887;SDS011;3989;48.810;9.208;2022-07-29T13:49:21;4.07;;;3.78;;
7887;SDS011;3989;48.810;9.208;2022-07-29T13:51:48;4.82;;;4.47;;
7887;SDS011;3989;48.810;9.208;2022-07-29T13:54:15;4.10;;;3.65;;
7887;SDS011;3989;48.810;9.208;2022-07-29T13:56:42;3.53;;;3.33;;
7887;SDS011;3989;48.810;9.208;2022-07-29T13:59:09;3.85;;;3.63;;
7887;SDS011;3989;48.810;9.208;2022-07-29T14:01:36;4.10;;;3.72;;
7887;SDS011;3989;48.810;9.208;2022-07-29T14:04:04;4.82;;;4.32;;
7887;SDS011;3989;48.810;9.208;2022-07-29T14:06:31;4.90;;;4.35;;
7887;SDS011;3989;48.810;9.208;2022-07-29T14:08:57;4.53;;;4.05;;
7887;SDS011;3989;48.810;9.208;2022-07-29T14:11:24;4.55;;;4.03;;
7887;SDS011;3989;48.810;9.208;2022-07-29T14:13:51;4.50;;;4.10;;
7887;SDS011;3989;48.810;9.208;2022-07-29T14:16:18;4.63;;;4.10;;
7887;SDS011;3989;48.810;9.208;2022-07-29T14:18:44;4.65;;;4.22;;
7887;SDS011;3989;48.810;9.208;2022-07-29T14:21:13;3.85;;;3.60;;
7887;SDS011;3989;48.810;9.208;2022-07-29T14:23:39;4.85;;;4.45;;
7887;SDS011;3989;48.810;9.208;2022-07-29T14:26:07;6.68;;;4.47;;
7887;SDS011;3989;48.810;9.208;2022-07-29T14:28:34;4.78;;;4.40;;
7887;SDS011;3989;48.810;9.208;2022-07-29T14:31:00;4.90;;;4.47;;
7887;SDS011;3989;48.810;9.208;2022-07-29T14:33:27;5.18;;;4.30;;
7887;SDS011;3989;48.810;9.208;2022-07-29T14:35:54;5.00;;;4.60;;
7887;SDS011;3989;48.810;9.208;2022-07-29T14:38:22;7.28;;;4.57;;
7887;SDS011;3989;48.810;9.208;2022-07-29T14:40:48;4.90;;;4.47;;
7887;SDS011;3989;48.810;9.208;2022-07-29T14:43:15;5.03;;;4.72;;
7887;SDS011;3989;48.810;9.208;2022-07-29T14:45:42;5.05;;;4.65;;
7887;SDS011;3989;48.810;9.208;2022-07-29T14:48:09;4.97;;;4.47;;
7887;SDS011;3989;48.810;9.208;2022-07-29T14:50:36;4.95;;;4.55;;
7887;SDS011;3989;48.810;9.208;2022-07-29T14:53:03;5.00;;;4.70;;
7887;SDS011;3989;48.810;9.208;2022-07-29T14:55:31;5.90;;;4.57;;
7887;SDS011;3989;48.810;9.208;2022-07-29T15:00:26;5.32;;;4.88;;
7887;SDS011;3989;48.810;9.208;2022-07-29T15:02:57;4.82;;;4.53;;
7887;SDS011;3989;48.810;9.208;2022-07-29T15:05:24;5.47;;;4.70;;
7887;SDS011;3989;48.810;9.208;2022-07-29T15:07:51;4.22;;;3.90;;
7887;SDS011;3989;48.810;9.208;2022-07-29T15:10:18;5.20;;;4.70;;
7887;SDS011;3989;48.810;9.208;2022-07-29T15:12:47;5.30;;;4.75;;
7887;SDS011;3989;48.810;9.208;2022-07-29T15:15:13;5.45;;;5.05;;
7887;SDS011;3989;48.810;9.208;2022-07-29T15:17:40;5.13;;;4.63;;
7887;SDS011;3989;48.810;9.208;2022-07-29T15:20:07;4.25;;;4.05;;
7887;SDS011;3989;48.810;9.208;2022-07-29T15:22:36;4.85;;;4.40;;
7887;SDS011;3989;48.810;9.208;2022-07-29T15:25:05;5.00;;;4.60;;
7887;SDS011;3989;48.810;9.208;2022-07-29T15:27:32;5.15;;;4.65;;
7887;SDS011;3989;48.810;9.208;2022-07-29T15:30:00;5.88;;;5.45;;
7887;SDS011;3989;48.810;9.208;2022-07-29T15:32:27;5.38;;;5.07;;
7887;SDS011;3989;48.810;9.208;2022-07-29T15:34:54;7.07;;;6.28;;
7887;SDS011;3989;48.810;9.208;2022-07-29T15:37:20;6.63;;;4.88;;
7887;SDS011;3989;48.810;9.208;2022-07-29T15:39:47;5.38;;;4.88;;
7887;SDS011;3989;48.810;9.208;2022-07-29T15:42:14;6.50;;;5.00;;
7887;SDS011;3989;48.810;9.208;2022-07-29T15:44:41;5.97;;;5.38;;